Cuffley, United Kingdom
Current Conditions -  °F | °C
As of 3:50 AM on Tuesday 21 Oct 2014 (Local Time) from EGGW Reporting Station
Broken Clouds Broken Clouds  
Wind Chill: 54°   Ceiling: 1100
Heat Index: 54°   Visibility: 6mi
Dew Point: 52°   Wind: 15mph
Humidity: 94%   Direction: 210°SSW
Pressure: 29.65"   Gusts: NA
Location:  51.71°N, 0.11°W
Report Text: EGGW 210250Z 21013KT 9999 BKN011 12/11 Q1004
Loading
Personal Weather Stations






























Interactive Weather Map
Tropical Storm Tracking
New forecast layout! Learn more

10-Day Weather Forecast

Advertisements
Track Severe Weather on mobile